sensor_id;sensor_type;location;lat;lon;timestamp;P1;durP1;ratioP1;P2;durP2;ratioP2
19347;SDS011;9810;52.480;9.806;2022-09-24T00:00:41;9.27;;;4.63;;
19347;SDS011;9810;52.480;9.806;2022-09-24T00:03:08;8.17;;;5.30;;
19347;SDS011;9810;52.480;9.806;2022-09-24T00:05:36;10.20;;;5.73;;
19347;SDS011;9810;52.480;9.806;2022-09-24T00:08:04;7.20;;;4.90;;
19347;SDS011;9810;52.480;9.806;2022-09-24T00:10:34;9.17;;;6.43;;
19347;SDS011;9810;52.480;9.806;2022-09-24T00:13:06;10.90;;;6.03;;
19347;SDS011;9810;52.480;9.806;2022-09-24T00:15:36;8.37;;;6.10;;
19347;SDS011;9810;52.480;9.806;2022-09-24T00:18:04;10.70;;;6.07;;
19347;SDS011;9810;52.480;9.806;2022-09-24T00:20:32;6.83;;;5.80;;
19347;SDS011;9810;52.480;9.806;2022-09-24T00:23:00;5.30;;;4.17;;
19347;SDS011;9810;52.480;9.806;2022-09-24T00:25:27;4.80;;;4.37;;
19347;SDS011;9810;52.480;9.806;2022-09-24T00:28:13;11.93;;;5.00;;
19347;SDS011;9810;52.480;9.806;2022-09-24T00:30:41;7.53;;;5.30;;
19347;SDS011;9810;52.480;9.806;2022-09-24T00:33:10;6.53;;;5.00;;
19347;SDS011;9810;52.480;9.806;2022-09-24T00:35:37;9.30;;;5.80;;
19347;SDS011;9810;52.480;9.806;2022-09-24T00:38:05;8.30;;;5.27;;
19347;SDS011;9810;52.480;9.806;2022-09-24T00:40:34;10.97;;;6.20;;
19347;SDS011;9810;52.480;9.806;2022-09-24T00:45:51;7.47;;;5.60;;
19347;SDS011;9810;52.480;9.806;2022-09-24T00:48:22;9.03;;;5.00;;
19347;SDS011;9810;52.480;9.806;2022-09-24T00:50:50;8.87;;;6.03;;
19347;SDS011;9810;52.480;9.806;2022-09-24T00:53:18;9.87;;;6.33;;
19347;SDS011;9810;52.480;9.806;2022-09-24T00:55:48;8.17;;;5.70;;
19347;SDS011;9810;52.480;9.806;2022-09-24T00:58:19;7.10;;;5.90;;
19347;SDS011;9810;52.480;9.806;2022-09-24T01:00:53;7.07;;;6.33;;
19347;SDS011;9810;52.480;9.806;2022-09-24T01:03:25;9.13;;;5.93;;
19347;SDS011;9810;52.480;9.806;2022-09-24T01:05:53;13.03;;;6.90;;
19347;SDS011;9810;52.480;9.806;2022-09-24T01:08:22;8.00;;;5.57;;
19347;SDS011;9810;52.480;9.806;2022-09-24T01:10:53;7.83;;;6.70;;
19347;SDS011;9810;52.480;9.806;2022-09-24T01:13:35;7.43;;;5.67;;
19347;SDS011;9810;52.480;9.806;2022-09-24T01:16:21;6.93;;;5.27;;
19347;SDS011;9810;52.480;9.806;2022-09-24T01:18:56;9.07;;;5.57;;
19347;SDS011;9810;52.480;9.806;2022-09-24T01:21:34;7.65;;;5.75;;
19347;SDS011;9810;52.480;9.806;2022-09-24T01:24:12;5.67;;;4.70;;
19347;SDS011;9810;52.480;9.806;2022-09-24T01:26:56;7.13;;;4.97;;
19347;SDS011;9810;52.480;9.806;2022-09-24T01:29:32;5.73;;;5.13;;
19347;SDS011;9810;52.480;9.806;2022-09-24T01:32:07;7.13;;;5.30;;
19347;SDS011;9810;52.480;9.806;2022-09-24T01:34:42;7.30;;;5.10;;
19347;SDS011;9810;52.480;9.806;2022-09-24T01:37:14;8.53;;;5.33;;
19347;SDS011;9810;52.480;9.806;2022-09-24T01:39:44;6.53;;;5.43;;
19347;SDS011;9810;52.480;9.806;2022-09-24T01:42:12;8.23;;;5.70;;
19347;SDS011;9810;52.480;9.806;2022-09-24T01:44:43;9.10;;;5.17;;
19347;SDS011;9810;52.480;9.806;2022-09-24T01:47:14;7.57;;;5.63;;
19347;SDS011;9810;52.480;9.806;2022-09-24T01:49:45;8.18;;;5.97;;
19347;SDS011;9810;52.480;9.806;2022-09-24T01:52:16;6.70;;;5.90;;
19347;SDS011;9810;52.480;9.806;2022-09-24T01:54:47;5.87;;;5.27;;
19347;SDS011;9810;52.480;9.806;2022-09-24T01:57:17;7.43;;;5.33;;
19347;SDS011;9810;52.480;9.806;2022-09-24T01:59:50;9.40;;;6.27;;
19347;SDS011;9810;52.480;9.806;2022-09-24T02:02:23;9.43;;;5.53;;
19347;SDS011;9810;52.480;9.806;2022-09-24T02:04:57;8.37;;;6.40;;
19347;SDS011;9810;52.480;9.806;2022-09-24T02:07:28;10.63;;;8.00;;
19347;SDS011;9810;52.480;9.806;2022-09-24T02:10:00;8.63;;;6.10;;
19347;SDS011;9810;52.480;9.806;2022-09-24T02:12:28;7.23;;;6.17;;
19347;SDS011;9810;52.480;9.806;2022-09-24T02:15:01;8.90;;;6.87;;
19347;SDS011;9810;52.480;9.806;2022-09-24T02:17:32;8.57;;;6.23;;
19347;SDS011;9810;52.480;9.806;2022-09-24T02:20:04;8.67;;;7.10;;
19347;SDS011;9810;52.480;9.806;2022-09-24T02:22:36;10.17;;;7.23;;
19347;SDS011;9810;52.480;9.806;2022-09-24T02:25:05;7.47;;;6.67;;
19347;SDS011;9810;52.480;9.806;2022-09-24T02:27:37;8.57;;;7.27;;
19347;SDS011;9810;52.480;9.806;2022-09-24T02:30:08;8.20;;;6.70;;
19347;SDS011;9810;52.480;9.806;2022-09-24T02:32:36;9.07;;;6.50;;
19347;SDS011;9810;52.480;9.806;2022-09-24T02:35:07;8.63;;;7.03;;
19347;SDS011;9810;52.480;9.806;2022-09-24T02:37:35;9.83;;;6.13;;
19347;SDS011;9810;52.480;9.806;2022-09-24T02:40:04;8.13;;;5.90;;
19347;SDS011;9810;52.480;9.806;2022-09-24T02:42:34;8.60;;;5.90;;
19347;SDS011;9810;52.480;9.806;2022-09-24T02:45:02;7.83;;;6.00;;
19347;SDS011;9810;52.480;9.806;2022-09-24T02:47:31;5.77;;;5.07;;
19347;SDS011;9810;52.480;9.806;2022-09-24T02:49:58;8.27;;;5.73;;
19347;SDS011;9810;52.480;9.806;2022-09-24T02:52:26;10.17;;;6.27;;
19347;SDS011;9810;52.480;9.806;2022-09-24T02:54:53;8.27;;;6.70;;
19347;SDS011;9810;52.480;9.806;2022-09-24T02:57:21;7.43;;;6.60;;
19347;SDS011;9810;52.480;9.806;2022-09-24T02:59:48;7.80;;;6.73;;
19347;SDS011;9810;52.480;9.806;2022-09-24T03:02:15;8.13;;;6.63;;
19347;SDS011;9810;52.480;9.806;2022-09-24T03:04:44;7.80;;;6.40;;
19347;SDS011;9810;52.480;9.806;2022-09-24T03:07:11;10.63;;;7.33;;
19347;SDS011;9810;52.480;9.806;2022-09-24T03:09:39;10.67;;;8.03;;
19347;SDS011;9810;52.480;9.806;2022-09-24T03:12:06;9.77;;;8.30;;
19347;SDS011;9810;52.480;9.806;2022-09-24T03:14:33;13.03;;;9.97;;
19347;SDS011;9810;52.480;9.806;2022-09-24T03:17:01;13.00;;;8.97;;
19347;SDS011;9810;52.480;9.806;2022-09-24T03:19:28;9.87;;;8.87;;
19347;SDS011;9810;52.480;9.806;2022-09-24T03:21:56;12.43;;;9.27;;
19347;SDS011;9810;52.480;9.806;2022-09-24T03:24:24;10.67;;;8.93;;
19347;SDS011;9810;52.480;9.806;2022-09-24T03:26:51;12.63;;;10.63;;
19347;SDS011;9810;52.480;9.806;2022-09-24T03:29:18;13.80;;;9.97;;
19347;SDS011;9810;52.480;9.806;2022-09-24T03:32:06;15.27;;;10.27;;
19347;SDS011;9810;52.480;9.806;2022-09-24T03:34:32;13.60;;;10.27;;
19347;SDS011;9810;52.480;9.806;2022-09-24T03:37:01;13.97;;;10.90;;
19347;SDS011;9810;52.480;9.806;2022-09-24T03:39:28;19.10;;;12.50;;
19347;SDS011;9810;52.480;9.806;2022-09-24T03:41:55;13.80;;;11.10;;
19347;SDS011;9810;52.480;9.806;2022-09-24T03:44:22;16.30;;;10.90;;
19347;SDS011;9810;52.480;9.806;2022-09-24T03:46:49;14.83;;;10.67;;
19347;SDS011;9810;52.480;9.806;2022-09-24T03:49:17;14.10;;;11.47;;
19347;SDS011;9810;52.480;9.806;2022-09-24T03:51:44;17.30;;;11.90;;
19347;SDS011;9810;52.480;9.806;2022-09-24T03:54:13;16.87;;;11.60;;
19347;SDS011;9810;52.480;9.806;2022-09-24T03:56:40;17.13;;;12.60;;
19347;SDS011;9810;52.480;9.806;2022-09-24T03:59:08;14.70;;;11.90;;
19347;SDS011;9810;52.480;9.806;2022-09-24T04:01:36;18.70;;;13.00;;
19347;SDS011;9810;52.480;9.806;2022-09-24T04:04:03;15.13;;;11.57;;
19347;SDS011;9810;52.480;9.806;2022-09-24T04:06:30;17.33;;;11.60;;
19347;SDS011;9810;52.480;9.806;2022-09-24T04:08:57;13.63;;;11.70;;
19347;SDS011;9810;52.480;9.806;2022-09-24T04:11:26;15.03;;;10.97;;
19347;SDS011;9810;52.480;9.806;2022-09-24T04:13:53;16.37;;;10.53;;
19347;SDS011;9810;52.480;9.806;2022-09-24T04:16:21;12.70;;;9.03;;
19347;SDS011;9810;52.480;9.806;2022-09-24T04:18:48;12.67;;;8.93;;
19347;SDS011;9810;52.480;9.806;2022-09-24T04:21:15;12.77;;;8.80;;
19347;SDS011;9810;52.480;9.806;2022-09-24T04:23:42;11.17;;;9.50;;
19347;SDS011;9810;52.480;9.806;2022-09-24T04:26:10;12.13;;;9.47;;
19347;SDS011;9810;52.480;9.806;2022-09-24T04:28:38;15.07;;;11.27;;
19347;SDS011;9810;52.480;9.806;2022-09-24T04:31:05;15.70;;;11.40;;
19347;SDS011;9810;52.480;9.806;2022-09-24T04:33:33;13.60;;;10.20;;
19347;SDS011;9810;52.480;9.806;2022-09-24T04:36:00;14.13;;;10.80;;
19347;SDS011;9810;52.480;9.806;2022-09-24T04:38:27;15.27;;;11.23;;
19347;SDS011;9810;52.480;9.806;2022-09-24T04:41:02;17.97;;;11.47;;
19347;SDS011;9810;52.480;9.806;2022-09-24T04:43:30;19.10;;;12.63;;
19347;SDS011;9810;52.480;9.806;2022-09-24T04:45:59;14.87;;;12.70;;
19347;SDS011;9810;52.480;9.806;2022-09-24T04:48:26;16.80;;;12.90;;
19347;SDS011;9810;52.480;9.806;2022-09-24T04:50:53;18.30;;;12.90;;
19347;SDS011;9810;52.480;9.806;2022-09-24T04:53:21;21.13;;;12.77;;
19347;SDS011;9810;52.480;9.806;2022-09-24T04:55:49;17.97;;;12.50;;
19347;SDS011;9810;52.480;9.806;2022-09-24T04:58:16;18.33;;;11.93;;
19347;SDS011;9810;52.480;9.806;2022-09-24T05:00:43;15.30;;;11.17;;
19347;SDS011;9810;52.480;9.806;2022-09-24T05:03:13;15.07;;;12.03;;
19347;SDS011;9810;52.480;9.806;2022-09-24T05:05:40;15.23;;;12.53;;
19347;SDS011;9810;52.480;9.806;2022-09-24T05:08:08;15.47;;;10.77;;
19347;SDS011;9810;52.480;9.806;2022-09-24T05:10:34;13.63;;;11.83;;
19347;SDS011;9810;52.480;9.806;2022-09-24T05:13:01;16.10;;;11.40;;
19347;SDS011;9810;52.480;9.806;2022-09-24T05:15:29;13.80;;;11.73;;
19347;SDS011;9810;52.480;9.806;2022-09-24T05:17:57;15.53;;;11.83;;
19347;SDS011;9810;52.480;9.806;2022-09-24T05:20:26;15.67;;;12.53;;
19347;SDS011;9810;52.480;9.806;2022-09-24T05:22:53;21.80;;;13.97;;
19347;SDS011;9810;52.480;9.806;2022-09-24T05:25:20;20.27;;;13.17;;
19347;SDS011;9810;52.480;9.806;2022-09-24T05:27:48;18.87;;;14.37;;
19347;SDS011;9810;52.480;9.806;2022-09-24T05:30:15;23.43;;;15.80;;
19347;SDS011;9810;52.480;9.806;2022-09-24T05:32:43;18.30;;;13.63;;
19347;SDS011;9810;52.480;9.806;2022-09-24T05:35:13;16.90;;;14.43;;
19347;SDS011;9810;52.480;9.806;2022-09-24T05:37:42;16.73;;;12.30;;
19347;SDS011;9810;52.480;9.806;2022-09-24T05:40:10;17.43;;;13.07;;
19347;SDS011;9810;52.480;9.806;2022-09-24T05:42:58;19.83;;;13.23;;
19347;SDS011;9810;52.480;9.806;2022-09-24T05:45:26;15.23;;;12.83;;
19347;SDS011;9810;52.480;9.806;2022-09-24T05:47:53;16.60;;;12.77;;
19347;SDS011;9810;52.480;9.806;2022-09-24T05:50:20;15.67;;;11.80;;
19347;SDS011;9810;52.480;9.806;2022-09-24T05:52:49;15.10;;;11.47;;
19347;SDS011;9810;52.480;9.806;2022-09-24T05:55:16;15.93;;;11.80;;
19347;SDS011;9810;52.480;9.806;2022-09-24T05:57:44;15.13;;;11.20;;
19347;SDS011;9810;52.480;9.806;2022-09-24T06:00:11;13.07;;;10.83;;
19347;SDS011;9810;52.480;9.806;2022-09-24T06:02:38;13.10;;;10.57;;
19347;SDS011;9810;52.480;9.806;2022-09-24T06:05:06;13.67;;;11.50;;
19347;SDS011;9810;52.480;9.806;2022-09-24T06:07:34;15.13;;;12.17;;
19347;SDS011;9810;52.480;9.806;2022-09-24T06:10:02;17.80;;;12.33;;
19347;SDS011;9810;52.480;9.806;2022-09-24T06:12:31;17.93;;;12.33;;
19347;SDS011;9810;52.480;9.806;2022-09-24T06:14:59;13.70;;;11.93;;
19347;SDS011;9810;52.480;9.806;2022-09-24T06:17:27;16.63;;;13.40;;
19347;SDS011;9810;52.480;9.806;2022-09-24T06:19:56;19.00;;;13.17;;
19347;SDS011;9810;52.480;9.806;2022-09-24T06:22:23;16.43;;;12.10;;
19347;SDS011;9810;52.480;9.806;2022-09-24T06:24:51;18.63;;;12.47;;
19347;SDS011;9810;52.480;9.806;2022-09-24T06:27:20;14.10;;;11.30;;
19347;SDS011;9810;52.480;9.806;2022-09-24T06:29:47;17.50;;;11.47;;
19347;SDS011;9810;52.480;9.806;2022-09-24T06:32:14;15.23;;;11.80;;
19347;SDS011;9810;52.480;9.806;2022-09-24T06:34:42;13.60;;;10.87;;
19347;SDS011;9810;52.480;9.806;2022-09-24T06:37:09;15.73;;;11.70;;
19347;SDS011;9810;52.480;9.806;2022-09-24T06:39:36;17.00;;;11.93;;
19347;SDS011;9810;52.480;9.806;2022-09-24T06:42:04;18.33;;;11.77;;
19347;SDS011;9810;52.480;9.806;2022-09-24T06:44:33;17.10;;;11.70;;
19347;SDS011;9810;52.480;9.806;2022-09-24T06:47:00;15.97;;;11.50;;
19347;SDS011;9810;52.480;9.806;2022-09-24T06:49:27;16.67;;;11.40;;
19347;SDS011;9810;52.480;9.806;2022-09-24T06:51:54;17.07;;;11.30;;
19347;SDS011;9810;52.480;9.806;2022-09-24T06:54:22;19.57;;;12.13;;
19347;SDS011;9810;52.480;9.806;2022-09-24T06:56:51;15.47;;;11.73;;
19347;SDS011;9810;52.480;9.806;2022-09-24T06:59:19;18.47;;;12.10;;
19347;SDS011;9810;52.480;9.806;2022-09-24T07:01:47;14.10;;;11.40;;
19347;SDS011;9810;52.480;9.806;2022-09-24T07:04:14;28.03;;;13.13;;
19347;SDS011;9810;52.480;9.806;2022-09-24T07:06:42;16.20;;;12.50;;
19347;SDS011;9810;52.480;9.806;2022-09-24T07:09:28;15.80;;;11.90;;
19347;SDS011;9810;52.480;9.806;2022-09-24T07:11:56;17.40;;;12.43;;
19347;SDS011;9810;52.480;9.806;2022-09-24T07:14:25;17.90;;;12.53;;
19347;SDS011;9810;52.480;9.806;2022-09-24T07:16:54;14.23;;;11.83;;
19347;SDS011;9810;52.480;9.806;2022-09-24T07:19:21;21.10;;;11.47;;
19347;SDS011;9810;52.480;9.806;2022-09-24T07:21:48;14.27;;;11.07;;
19347;SDS011;9810;52.480;9.806;2022-09-24T07:24:15;14.57;;;11.03;;
19347;SDS011;9810;52.480;9.806;2022-09-24T07:26:42;20.20;;;11.27;;
19347;SDS011;9810;52.480;9.806;2022-09-24T07:29:09;17.95;;;12.95;;
19347;SDS011;9810;52.480;9.806;2022-09-24T07:31:36;15.50;;;12.03;;
19347;SDS011;9810;52.480;9.806;2022-09-24T07:34:06;15.77;;;11.30;;
19347;SDS011;9810;52.480;9.806;2022-09-24T07:36:34;18.00;;;11.37;;
19347;SDS011;9810;52.480;9.806;2022-09-24T07:39:02;16.63;;;11.83;;
19347;SDS011;9810;52.480;9.806;2022-09-24T07:41:30;18.43;;;13.27;;
19347;SDS011;9810;52.480;9.806;2022-09-24T07:43:57;18.83;;;13.83;;
19347;SDS011;9810;52.480;9.806;2022-09-24T07:46:27;15.27;;;11.83;;
19347;SDS011;9810;52.480;9.806;2022-09-24T07:48:54;17.03;;;11.93;;
19347;SDS011;9810;52.480;9.806;2022-09-24T07:51:26;14.27;;;11.57;;
19347;SDS011;9810;52.480;9.806;2022-09-24T07:53:54;14.53;;;11.50;;
19347;SDS011;9810;52.480;9.806;2022-09-24T07:56:22;12.50;;;10.13;;
19347;SDS011;9810;52.480;9.806;2022-09-24T07:58:50;16.77;;;10.43;;
19347;SDS011;9810;52.480;9.806;2022-09-24T08:01:19;15.20;;;11.60;;
19347;SDS011;9810;52.480;9.806;2022-09-24T08:03:46;14.97;;;11.27;;
19347;SDS011;9810;52.480;9.806;2022-09-24T08:06:18;14.80;;;10.97;;
19347;SDS011;9810;52.480;9.806;2022-09-24T08:08:49;15.40;;;10.97;;
19347;SDS011;9810;52.480;9.806;2022-09-24T08:11:17;15.47;;;10.50;;
19347;SDS011;9810;52.480;9.806;2022-09-24T08:13:45;12.97;;;10.23;;
19347;SDS011;9810;52.480;9.806;2022-09-24T08:16:13;12.43;;;10.37;;
19347;SDS011;9810;52.480;9.806;2022-09-24T08:18:41;15.13;;;12.17;;
19347;SDS011;9810;52.480;9.806;2022-09-24T08:21:09;13.97;;;10.57;;
19347;SDS011;9810;52.480;9.806;2022-09-24T08:23:39;14.47;;;10.07;;
19347;SDS011;9810;52.480;9.806;2022-09-24T08:26:11;14.17;;;10.53;;
19347;SDS011;9810;52.480;9.806;2022-09-24T08:28:42;14.90;;;9.60;;
19347;SDS011;9810;52.480;9.806;2022-09-24T08:31:10;11.03;;;9.27;;
19347;SDS011;9810;52.480;9.806;2022-09-24T08:33:38;11.67;;;9.10;;
19347;SDS011;9810;52.480;9.806;2022-09-24T08:36:06;11.73;;;9.27;;
19347;SDS011;9810;52.480;9.806;2022-09-24T08:38:35;12.90;;;10.17;;
19347;SDS011;9810;52.480;9.806;2022-09-24T08:41:06;11.83;;;9.40;;
19347;SDS011;9810;52.480;9.806;2022-09-24T08:43:49;11.67;;;9.20;;
19347;SDS011;9810;52.480;9.806;2022-09-24T08:46:27;17.97;;;10.07;;
19347;SDS011;9810;52.480;9.806;2022-09-24T08:49:17;14.47;;;9.67;;
19347;SDS011;9810;52.480;9.806;2022-09-24T08:51:53;15.07;;;9.97;;
19347;SDS011;9810;52.480;9.806;2022-09-24T08:54:26;16.27;;;10.43;;
19347;SDS011;9810;52.480;9.806;2022-09-24T08:56:58;13.50;;;10.07;;
19347;SDS011;9810;52.480;9.806;2022-09-24T08:59:28;12.63;;;10.23;;
19347;SDS011;9810;52.480;9.806;2022-09-24T09:02:05;12.43;;;9.83;;
19347;SDS011;9810;52.480;9.806;2022-09-24T09:04:49;14.27;;;10.00;;
19347;SDS011;9810;52.480;9.806;2022-09-24T09:07:22;11.13;;;9.03;;
19347;SDS011;9810;52.480;9.806;2022-09-24T09:09:55;13.30;;;9.90;;
19347;SDS011;9810;52.480;9.806;2022-09-24T09:12:33;16.15;;;11.85;;
19347;SDS011;9810;52.480;9.806;2022-09-24T09:15:05;12.43;;;10.20;;
19347;SDS011;9810;52.480;9.806;2022-09-24T09:17:39;13.07;;;9.40;;
19347;SDS011;9810;52.480;9.806;2022-09-24T09:20:14;17.67;;;11.00;;
19347;SDS011;9810;52.480;9.806;2022-09-24T09:22:45;15.67;;;10.17;;
19347;SDS011;9810;52.480;9.806;2022-09-24T09:25:20;15.03;;;11.10;;
19347;SDS011;9810;52.480;9.806;2022-09-24T09:27:52;15.30;;;9.90;;
19347;SDS011;9810;52.480;9.806;2022-09-24T09:30:25;14.40;;;10.43;;
19347;SDS011;9810;52.480;9.806;2022-09-24T09:32:57;15.57;;;11.30;;
19347;SDS011;9810;52.480;9.806;2022-09-24T09:35:40;16.00;;;10.77;;
19347;SDS011;9810;52.480;9.806;2022-09-24T09:38:15;13.60;;;11.13;;
19347;SDS011;9810;52.480;9.806;2022-09-24T09:40:50;13.70;;;10.57;;
19347;SDS011;9810;52.480;9.806;2022-09-24T09:43:24;14.60;;;11.30;;
19347;SDS011;9810;52.480;9.806;2022-09-24T09:45:55;12.97;;;10.83;;
19347;SDS011;9810;52.480;9.806;2022-09-24T09:48:36;15.77;;;10.17;;
19347;SDS011;9810;52.480;9.806;2022-09-24T09:51:12;15.43;;;9.97;;
19347;SDS011;9810;52.480;9.806;2022-09-24T09:53:51;15.70;;;10.53;;
19347;SDS011;9810;52.480;9.806;2022-09-24T09:56:21;15.37;;;10.33;;
19347;SDS011;9810;52.480;9.806;2022-09-24T09:58:59;16.57;;;11.03;;
19347;SDS011;9810;52.480;9.806;2022-09-24T10:01:31;19.53;;;11.37;;
19347;SDS011;9810;52.480;9.806;2022-09-24T10:04:00;16.20;;;10.70;;
19347;SDS011;9810;52.480;9.806;2022-09-24T10:06:29;15.47;;;11.10;;
19347;SDS011;9810;52.480;9.806;2022-09-24T10:09:10;14.47;;;10.93;;
19347;SDS011;9810;52.480;9.806;2022-09-24T10:11:38;13.80;;;10.27;;
19347;SDS011;9810;52.480;9.806;2022-09-24T10:14:09;13.03;;;10.73;;
19347;SDS011;9810;52.480;9.806;2022-09-24T10:16:37;20.20;;;11.70;;
19347;SDS011;9810;52.480;9.806;2022-09-24T10:19:12;17.90;;;11.53;;
19347;SDS011;9810;52.480;9.806;2022-09-24T10:21:42;15.97;;;10.87;;
19347;SDS011;9810;52.480;9.806;2022-09-24T10:24:11;16.10;;;11.53;;
19347;SDS011;9810;52.480;9.806;2022-09-24T10:26:42;13.43;;;10.43;;
19347;SDS011;9810;52.480;9.806;2022-09-24T10:29:13;14.07;;;10.33;;
19347;SDS011;9810;52.480;9.806;2022-09-24T10:32:00;17.90;;;10.43;;
19347;SDS011;9810;52.480;9.806;2022-09-24T10:34:28;13.70;;;10.87;;
19347;SDS011;9810;52.480;9.806;2022-09-24T10:36:57;13.83;;;10.13;;
19347;SDS011;9810;52.480;9.806;2022-09-24T10:39:27;12.83;;;9.47;;
19347;SDS011;9810;52.480;9.806;2022-09-24T10:41:55;17.17;;;11.00;;
19347;SDS011;9810;52.480;9.806;2022-09-24T10:44:25;15.13;;;9.80;;
19347;SDS011;9810;52.480;9.806;2022-09-24T10:47:02;13.23;;;10.43;;
19347;SDS011;9810;52.480;9.806;2022-09-24T10:49:51;13.57;;;10.27;;
19347;SDS011;9810;52.480;9.806;2022-09-24T10:52:32;13.73;;;10.53;;
19347;SDS011;9810;52.480;9.806;2022-09-24T10:55:15;14.57;;;10.77;;
19347;SDS011;9810;52.480;9.806;2022-09-24T10:57:52;14.43;;;10.00;;
19347;SDS011;9810;52.480;9.806;2022-09-24T11:00:29;17.67;;;10.57;;
19347;SDS011;9810;52.480;9.806;2022-09-24T11:05:55;22.57;;;13.63;;
19347;SDS011;9810;52.480;9.806;2022-09-24T11:08:31;17.30;;;11.63;;
19347;SDS011;9810;52.480;9.806;2022-09-24T11:11:28;13.77;;;9.63;;
19347;SDS011;9810;52.480;9.806;2022-09-24T11:14:07;12.20;;;8.27;;
19347;SDS011;9810;52.480;9.806;2022-09-24T11:16:52;13.90;;;8.43;;
19347;SDS011;9810;52.480;9.806;2022-09-24T11:19:50;15.97;;;9.20;;
19347;SDS011;9810;52.480;9.806;2022-09-24T11:22:31;14.73;;;9.60;;
19347;SDS011;9810;52.480;9.806;2022-09-24T11:25:10;11.87;;;8.47;;
19347;SDS011;9810;52.480;9.806;2022-09-24T11:27:50;11.57;;;8.03;;
19347;SDS011;9810;52.480;9.806;2022-09-24T11:30:25;10.80;;;6.50;;
19347;SDS011;9810;52.480;9.806;2022-09-24T11:33:04;10.53;;;7.20;;
19347;SDS011;9810;52.480;9.806;2022-09-24T11:35:56;11.33;;;8.27;;
19347;SDS011;9810;52.480;9.806;2022-09-24T11:38:38;11.30;;;8.05;;
19347;SDS011;9810;52.480;9.806;2022-09-24T11:41:22;9.17;;;6.70;;
19347;SDS011;9810;52.480;9.806;2022-09-24T11:47:08;10.47;;;7.07;;
19347;SDS011;9810;52.480;9.806;2022-09-24T11:49:53;9.70;;;6.57;;
19347;SDS011;9810;52.480;9.806;2022-09-24T11:52:29;9.90;;;6.83;;
19347;SDS011;9810;52.480;9.806;2022-09-24T11:55:03;9.47;;;6.97;;
19347;SDS011;9810;52.480;9.806;2022-09-24T11:57:39;8.17;;;5.83;;
19347;SDS011;9810;52.480;9.806;2022-09-24T12:00:11;10.07;;;6.43;;
19347;SDS011;9810;52.480;9.806;2022-09-24T12:02:42;9.57;;;6.53;;
19347;SDS011;9810;52.480;9.806;2022-09-24T12:05:16;9.57;;;6.40;;
19347;SDS011;9810;52.480;9.806;2022-09-24T12:07:52;11.23;;;7.33;;
19347;SDS011;9810;52.480;9.806;2022-09-24T12:10:27;9.80;;;6.70;;
19347;SDS011;9810;52.480;9.806;2022-09-24T12:13:00;10.77;;;6.30;;
19347;SDS011;9810;52.480;9.806;2022-09-24T12:15:41;11.83;;;7.13;;
19347;SDS011;9810;52.480;9.806;2022-09-24T12:18:13;10.17;;;7.30;;
19347;SDS011;9810;52.480;9.806;2022-09-24T12:20:46;8.77;;;6.60;;
19347;SDS011;9810;52.480;9.806;2022-09-24T12:23:17;9.70;;;6.77;;
19347;SDS011;9810;52.480;9.806;2022-09-24T12:25:48;10.17;;;6.80;;
19347;SDS011;9810;52.480;9.806;2022-09-24T12:28:18;10.63;;;6.37;;
19347;SDS011;9810;52.480;9.806;2022-09-24T12:31:01;9.80;;;7.37;;
19347;SDS011;9810;52.480;9.806;2022-09-24T12:33:53;9.77;;;6.63;;
19347;SDS011;9810;52.480;9.806;2022-09-24T12:36:28;7.83;;;5.87;;
19347;SDS011;9810;52.480;9.806;2022-09-24T12:39:06;8.10;;;6.23;;
19347;SDS011;9810;52.480;9.806;2022-09-24T12:41:37;9.37;;;6.67;;
19347;SDS011;9810;52.480;9.806;2022-09-24T12:44:10;11.00;;;7.27;;
19347;SDS011;9810;52.480;9.806;2022-09-24T12:46:42;12.00;;;6.50;;
19347;SDS011;9810;52.480;9.806;2022-09-24T12:49:17;10.97;;;7.27;;
19347;SDS011;9810;52.480;9.806;2022-09-24T12:51:53;9.40;;;6.70;;
19347;SDS011;9810;52.480;9.806;2022-09-24T12:54:22;10.03;;;6.93;;
19347;SDS011;9810;52.480;9.806;2022-09-24T12:57:03;9.67;;;6.83;;
19347;SDS011;9810;52.480;9.806;2022-09-24T12:59:32;8.07;;;6.40;;
19347;SDS011;9810;52.480;9.806;2022-09-24T13:02:11;13.05;;;7.10;;
19347;SDS011;9810;52.480;9.806;2022-09-24T13:04:43;8.50;;;6.63;;
19347;SDS011;9810;52.480;9.806;2022-09-24T13:07:30;12.13;;;6.60;;
19347;SDS011;9810;52.480;9.806;2022-09-24T13:12:47;11.23;;;6.30;;
19347;SDS011;9810;52.480;9.806;2022-09-24T13:15:20;9.03;;;5.70;;
19347;SDS011;9810;52.480;9.806;2022-09-24T13:17:59;8.13;;;5.43;;
19347;SDS011;9810;52.480;9.806;2022-09-24T13:20:32;12.93;;;5.30;;
19347;SDS011;9810;52.480;9.806;2022-09-24T13:23:13;8.97;;;5.40;;
19347;SDS011;9810;52.480;9.806;2022-09-24T13:25:56;9.47;;;5.70;;
19347;SDS011;9810;52.480;9.806;2022-09-24T13:28:24;13.20;;;6.40;;
19347;SDS011;9810;52.480;9.806;2022-09-24T13:30:54;8.30;;;5.50;;
19347;SDS011;9810;52.480;9.806;2022-09-24T13:33:28;8.80;;;5.63;;
19347;SDS011;9810;52.480;9.806;2022-09-24T13:35:59;7.03;;;5.30;;
19347;SDS011;9810;52.480;9.806;2022-09-24T13:38:33;7.87;;;5.70;;
19347;SDS011;9810;52.480;9.806;2022-09-24T13:41:05;6.80;;;5.37;;
19347;SDS011;9810;52.480;9.806;2022-09-24T13:43:46;8.53;;;5.70;;
19347;SDS011;9810;52.480;9.806;2022-09-24T13:46:17;9.37;;;6.33;;
19347;SDS011;9810;52.480;9.806;2022-09-24T13:48:47;8.10;;;5.73;;
19347;SDS011;9810;52.480;9.806;2022-09-24T13:51:17;8.60;;;6.77;;
19347;SDS011;9810;52.480;9.806;2022-09-24T13:53:53;10.00;;;6.90;;
19347;SDS011;9810;52.480;9.806;2022-09-24T13:56:25;9.43;;;6.87;;
19347;SDS011;9810;52.480;9.806;2022-09-24T13:58:52;11.03;;;7.13;;
19347;SDS011;9810;52.480;9.806;2022-09-24T14:01:33;8.40;;;6.40;;
19347;SDS011;9810;52.480;9.806;2022-09-24T14:04:04;10.63;;;7.50;;
19347;SDS011;9810;52.480;9.806;2022-09-24T14:06:40;9.20;;;6.33;;
19347;SDS011;9810;52.480;9.806;2022-09-24T14:09:15;8.27;;;6.37;;
19347;SDS011;9810;52.480;9.806;2022-09-24T14:11:51;9.00;;;6.53;;
19347;SDS011;9810;52.480;9.806;2022-09-24T14:14:20;11.47;;;7.07;;
19347;SDS011;9810;52.480;9.806;2022-09-24T14:16:50;11.90;;;6.80;;
19347;SDS011;9810;52.480;9.806;2022-09-24T14:19:19;8.77;;;6.47;;
19347;SDS011;9810;52.480;9.806;2022-09-24T14:21:48;12.27;;;7.53;;
19347;SDS011;9810;52.480;9.806;2022-09-24T14:24:20;9.90;;;6.97;;
19347;SDS011;9810;52.480;9.806;2022-09-24T14:26:51;9.07;;;7.17;;
19347;SDS011;9810;52.480;9.806;2022-09-24T14:29:21;9.83;;;7.53;;
19347;SDS011;9810;52.480;9.806;2022-09-24T14:31:52;9.53;;;7.27;;
19347;SDS011;9810;52.480;9.806;2022-09-24T14:34:24;10.93;;;8.30;;
19347;SDS011;9810;52.480;9.806;2022-09-24T14:36:54;10.43;;;7.13;;
19347;SDS011;9810;52.480;9.806;2022-09-24T14:39:26;11.10;;;7.70;;
19347;SDS011;9810;52.480;9.806;2022-09-24T14:41:55;9.53;;;7.00;;
19347;SDS011;9810;52.480;9.806;2022-09-24T14:44:25;9.43;;;7.23;;
19347;SDS011;9810;52.480;9.806;2022-09-24T14:46:54;9.70;;;7.07;;
19347;SDS011;9810;52.480;9.806;2022-09-24T14:49:24;10.57;;;8.38;;
19347;SDS011;9810;52.480;9.806;2022-09-24T14:51:54;9.50;;;7.20;;
19347;SDS011;9810;52.480;9.806;2022-09-24T14:54:29;10.10;;;7.43;;
19347;SDS011;9810;52.480;9.806;2022-09-24T14:57:08;10.97;;;7.37;;
19347;SDS011;9810;52.480;9.806;2022-09-24T14:59:37;9.87;;;7.00;;
19347;SDS011;9810;52.480;9.806;2022-09-24T15:02:11;10.40;;;7.30;;
19347;SDS011;9810;52.480;9.806;2022-09-24T15:04:43;10.77;;;7.30;;
19347;SDS011;9810;52.480;9.806;2022-09-24T15:07:15;11.57;;;7.97;;
19347;SDS011;9810;52.480;9.806;2022-09-24T15:09:48;11.97;;;7.30;;
19347;SDS011;9810;52.480;9.806;2022-09-24T15:12:18;9.57;;;7.53;;
19347;SDS011;9810;52.480;9.806;2022-09-24T15:14:54;10.93;;;7.00;;
19347;SDS011;9810;52.480;9.806;2022-09-24T15:17:23;22.70;;;8.80;;
19347;SDS011;9810;52.480;9.806;2022-09-24T15:19:55;10.00;;;7.90;;
19347;SDS011;9810;52.480;9.806;2022-09-24T15:22:23;11.83;;;7.70;;